Copeland, Kansas
Current Conditions -  °F | °C
As of 10:54 AM on Tuesday 27 Jan 2015 (Local Time) from KGCK Reporting Station
Clear Clear  
Wind Chill: 60°   Ceiling: Unl
Heat Index: 60°   Visibility: 10mi
Dew Point: 31°   Wind: 12mph
Humidity: 33%   Direction: 250°WSW
Pressure: 30.14"   Gusts: NA
Location:  37.54°N, 100.63°W
Report Text: KGCK 271654Z 25010KT 10SM CLR 16/M01 A3014 RMK AO2 SLP199 T01561006
Loading
Personal Weather Stations






























Interactive Weather Map New forecast layout! Learn more

10-Day Weather Forecast

Advertisements
Track Severe Weather on mobile